»·PEaware :: N713AG KMIT-KSNA

N713AG :: KMIT-KSNA

FLIGHT INFORMATION

Flight Status: Arrived
Operator: Privately registered:
United States
More flights under this callsign
Pilot: Charles S. (11412)
Aircraft: SOCATA TBM-900
(TBM9)
More flights by this aircraft type
Origin: KMIT Shafter-Minter
United States
Destination: KSNA John Wayne-Orange Co
United States
More flights between these airports :: More routes between these airports
Route: +EHF V165 SAUGS V459 SLI
File this flight plan on PilotEdge
Remarks:
Altitude:
(Current/Filed)
13,000ft
Speed:
(Current/Filed)
245kts
Departed: 24-Oct-18 04:02 PM
Arrived: 24-Oct-18 04:55 PM
Distance/Time
Traveled:
128nm/0:53
Distance/Time
To Go:
Arrived

Flight Plot

Page will automatically refresh every two minutes.

Flight plan parsing failed; only flown route is shown


Map Options




Map Legend


Flown Route
Filed Route
Departure Airport
Arrival Airport
Navaid (VOR, NDB)
Fix

Horizontal Profiles

Position Reports

Time Latitude Longitude Heading Altitude Ground
Speed
24-Oct-18 15:58 35.503975 -119.183800 358 423ft 0kts
24-Oct-18 15:59 35.503975 -119.183800 358 423ft 0kts
24-Oct-18 16:00 35.503975 -119.183800 358 423ft 0kts
24-Oct-18 16:01 35.503975 -119.183800 358 423ft 0kts
24-Oct-18 16:02 35.503018 -119.184102 271 423ft 10kts
24-Oct-18 16:03 35.501303 -119.186233 337 423ft 18kts
24-Oct-18 16:04 35.527748 -119.179305 66 1802ft 141kts
24-Oct-18 16:05 35.504917 -119.138506 126 3857ft 174kts
24-Oct-18 16:06 35.474238 -119.090424 129 5665ft 189kts
24-Oct-18 16:07 35.438424 -119.045297 136 7415ft 191kts
24-Oct-18 16:08 35.401334 -119.002592 137 9133ft 189kts
24-Oct-18 16:09 35.363145 -118.959154 138 10872ft 204kts
24-Oct-18 16:10 35.321187 -118.911547 138 12476ft 219kts
24-Oct-18 16:11 35.276153 -118.860545 138 13163ft 252kts
24-Oct-18 16:12 35.235095 -118.814144 138 13042ft 269kts
24-Oct-18 16:13 35.184004 -118.756597 148 13027ft 271kts
24-Oct-18 16:14 35.117275 -118.731668 165 13062ft 269kts
24-Oct-18 16:15 35.051149 -118.708256 164 13092ft 268kts
24-Oct-18 16:16 34.983860 -118.684227 164 13101ft 274kts
24-Oct-18 16:17 34.911891 -118.658530 163 13103ft 281kts
24-Oct-18 16:18 34.844533 -118.634465 163 13090ft 285kts
24-Oct-18 16:19 34.780806 -118.611738 163 13057ft 287kts
24-Oct-18 16:20 34.719535 -118.589935 163 13019ft 287kts
24-Oct-18 16:21 34.651439 -118.558403 153 12998ft 287kts
24-Oct-18 16:22 34.588169 -118.521323 153 13049ft 285kts
24-Oct-18 16:23 34.536587 -118.491121 153 13048ft 286kts
24-Oct-18 16:24 34.457838 -118.445089 153 12690ft 282kts
24-Oct-18 16:25 34.392410 -118.406947 152 11230ft 266kts
24-Oct-18 16:26 34.341562 -118.377340 151 10056ft 253kts
24-Oct-18 16:27 34.285275 -118.344572 151 9019ft 248kts
24-Oct-18 16:28 34.213818 -118.302992 156 9003ft 270kts
24-Oct-18 16:29 34.148648 -118.265315 155 9000ft 274kts
24-Oct-18 16:30 34.092130 -118.232612 155 9000ft 275kts
24-Oct-18 16:31 34.027670 -118.195338 155 8993ft 257kts
24-Oct-18 16:32 33.965882 -118.175411 191 8418ft 216kts
24-Oct-18 16:33 33.915984 -118.184336 191 7372ft 186kts
24-Oct-18 16:34 33.868221 -118.192824 192 6897ft 187kts
24-Oct-18 16:35 33.817569 -118.201822 191 6060ft 192kts
24-Oct-18 16:36 33.765189 -118.211084 187 5004ft 201kts
24-Oct-18 16:37 33.754356 -118.155897 66 4998ft 214kts
24-Oct-18 16:38 33.776535 -118.093572 66 4133ft 226kts
24-Oct-18 16:39 33.799041 -118.033882 66 2977ft 198kts
24-Oct-18 16:40 33.821363 -117.974981 66 2997ft 210kts
24-Oct-18 16:41 33.844279 -117.914318 66 2992ft 213kts
24-Oct-18 16:42 33.867584 -117.852637 66 2988ft 213kts
24-Oct-18 16:43 33.891066 -117.790182 67 2986ft 214kts
24-Oct-18 16:48 33.867450 -117.733587 131 2985ft 198kts
24-Oct-18 16:49 33.829639 -117.700577 201 2983ft 186kts
24-Oct-18 16:50 33.814947 -117.752451 261 2994ft 182kts
24-Oct-18 16:51 33.791899 -117.797401 198 2420ft 159kts
24-Oct-18 16:52 33.765103 -117.812726 207 1885ft 112kts
24-Oct-18 16:53 33.738464 -117.829391 207 1304ft 115kts
24-Oct-18 16:54 33.716695 -117.843048 207 820ft 72kts
24-Oct-18 16:55 33.695884 -117.856143 207 394ft 89kts
24-Oct-18 16:56 33.677342 -117.867776 206 59ft 42kts
24-Oct-18 16:57 33.674291 -117.868421 143 59ft 0kts
24-Oct-18 16:58 33.672512 -117.867804 163 59ft 11kts
24-Oct-18 16:59 33.671924 -117.867150 199 59ft 0kts

Navigation Log

Ident Type
Flight plan parsing failed, navigation log unavailable